Time,TemperatureF,DewpointF,PressureIn,WindDirection,WindDirectionDegrees,WindSpeedMPH,WindSpeedGustMPH,Humidity,HourlyPrecipIn,Conditions,Clouds,dailyrainin,SoftwareType,DateUTC
2013-05-23 00:04:00,36.3,31.7,30.00,SW,225,0.0,0.0,83,0.00,,---,0.00,VWS V14.01,2013-05-23 07:04:00,
2013-05-23 00:09:00,36.3,31.7,30.00,SW,225,0.0,0.0,83,0.00,,---,0.00,VWS V14.01,2013-05-23 07:09:00,
2013-05-23 00:14:00,36.3,32.0,30.00,South,180,0.0,0.0,84,0.00,,---,0.00,VWS V14.01,2013-05-23 07:14:00,
2013-05-23 00:19:00,36.5,32.4,30.00,South,180,0.0,0.0,85,0.00,,---,0.00,VWS V14.01,2013-05-23 07:19:00,
2013-05-23 00:24:00,36.9,32.8,30.00,South,180,2.0,2.0,85,0.00,,---,0.00,VWS V14.01,2013-05-23 07:24:00,
2013-05-23 00:29:00,37.6,34.3,30.00,NNW,338,2.7,2.7,88,0.00,,---,0.00,VWS V14.01,2013-05-23 07:29:00,
2013-05-23 00:34:00,37.9,35.0,30.00,SSW,202,1.1,1.1,89,0.00,,---,0.00,VWS V14.01,2013-05-23 07:34:00,
2013-05-23 00:39:00,38.7,36.0,30.00,SSE,158,3.6,3.6,90,0.00,,---,0.00,VWS V14.01,2013-05-23 07:39:00,
2013-05-23 00:44:00,38.8,36.4,30.00,South,180,2.2,2.2,91,0.00,,---,0.00,VWS V14.01,2013-05-23 07:44:00,
2013-05-23 00:49:00,39.2,36.8,30.00,South,180,2.2,2.2,91,0.00,,---,0.00,VWS V14.01,2013-05-23 07:49:00,
2013-05-23 00:55:00,39.2,36.5,30.00,SE,135,2.9,2.9,90,0.00,,---,0.00,VWS V14.01,2013-05-23 07:55:00,
2013-05-23 01:00:00,39.2,36.2,30.00,SE,135,2.2,2.2,89,0.00,,---,0.00,VWS V14.01,2013-05-23 08:00:00,
2013-05-23 01:05:00,39.4,36.4,30.00,South,180,1.6,1.6,89,0.00,,---,0.00,VWS V14.01,2013-05-23 08:05:00,
2013-05-23 01:10:00,39.4,36.1,30.00,South,180,0.0,0.0,88,0.00,,---,0.00,VWS V14.01,2013-05-23 08:10:00,
2013-05-23 01:15:00,39.2,36.0,30.00,South,180,1.1,1.1,88,0.00,,---,0.00,VWS V14.01,2013-05-23 08:15:00,
2013-05-23 01:20:00,39.2,36.2,30.00,East,90,4.0,4.0,89,0.00,,---,0.00,VWS V14.01,2013-05-23 08:20:00,
2013-05-23 01:25:00,39.2,36.0,30.00,SSE,158,0.0,0.0,88,0.00,,---,0.00,VWS V14.01,2013-05-23 08:25:00,
2013-05-23 01:30:00,39.0,36.1,30.00,South,180,0.0,0.0,89,0.00,,---,0.00,VWS V14.01,2013-05-23 08:30:00,
2013-05-23 01:35:00,39.2,36.2,30.00,SW,225,0.0,0.0,89,0.00,,---,0.00,VWS V14.01,2013-05-23 08:35:00,
2013-05-23 01:40:00,39.0,36.1,30.00,ESE,112,0.0,0.0,89,0.00,,---,0.00,VWS V14.01,2013-05-23 08:40:00,
2013-05-23 01:45:00,38.8,35.6,30.00,SE,135,3.4,3.4,88,0.00,,---,0.00,VWS V14.01,2013-05-23 08:45:00,
2013-05-23 01:50:00,38.8,35.9,30.03,SSW,202,2.7,2.7,89,0.00,,---,0.00,VWS V14.01,2013-05-23 08:50:00,
2013-05-23 01:55:00,38.8,35.9,30.03,SSW,202,0.0,0.0,89,0.00,,---,0.00,VWS V14.01,2013-05-23 08:55:00,
2013-05-23 02:00:00,38.7,35.4,30.00,SW,225,0.0,0.0,88,0.00,,---,0.00,VWS V14.01,2013-05-23 09:00:00,
2013-05-23 02:05:00,38.3,34.8,30.00,SW,225,0.0,0.0,87,0.00,,---,0.00,VWS V14.01,2013-05-23 09:05:00,
2013-05-23 02:11:00,37.8,34.2,30.00,WSW,248,0.0,0.0,87,0.00,,---,0.00,VWS V14.01,2013-05-23 09:11:00,
2013-05-23 02:16:00,37.6,34.1,30.00,NW,315,0.0,0.0,87,0.00,,---,0.00,VWS V14.01,2013-05-23 09:16:00,
2013-05-23 02:21:00,37.6,34.3,30.03,SSE,158,1.3,1.3,88,0.00,,---,0.00,VWS V14.01,2013-05-23 09:21:00,
2013-05-23 02:26:00,37.6,34.3,30.03,South,180,0.0,0.0,88,0.00,,---,0.00,VWS V14.01,2013-05-23 09:26:00,
2013-05-23 02:31:00,37.2,34.0,30.03,South,180,0.0,0.0,88,0.00,,---,0.00,VWS V14.01,2013-05-23 09:31:00,
2013-05-23 02:36:00,37.0,33.8,30.03,South,180,0.0,0.0,88,0.00,,---,0.00,VWS V14.01,2013-05-23 09:36:00,
2013-05-23 02:41:00,37.0,33.8,30.03,South,180,0.0,0.0,88,0.00,,---,0.00,VWS V14.01,2013-05-23 09:41:00,
2013-05-23 02:46:00,36.9,33.7,30.03,SSW,202,0.0,0.0,88,0.00,,---,0.04,VWS V14.01,2013-05-23 09:46:00,
2013-05-23 02:51:00,36.5,33.3,30.03,SSW,202,0.0,0.0,88,0.00,,---,0.00,VWS V14.01,2013-05-23 09:51:00,
2013-05-23 02:56:00,36.7,33.8,30.03,SSW,202,0.0,0.0,89,0.00,,---,0.00,VWS V14.01,2013-05-23 09:56:00,
2013-05-23 03:01:00,36.7,33.8,30.03,South,180,2.7,2.7,89,0.00,,---,0.00,VWS V14.01,2013-05-23 10:01:00,
2013-05-23 03:06:00,37.0,34.4,30.03,SSW,202,2.2,2.2,90,0.00,,---,0.00,VWS V14.01,2013-05-23 10:06:00,
2013-05-23 03:11:00,37.6,35.2,30.03,NNE,22,0.0,0.0,91,0.00,,---,0.00,VWS V14.01,2013-05-23 10:11:00,
2013-05-23 03:16:00,37.6,34.9,30.03,South,180,0.0,0.0,90,0.00,,---,0.00,VWS V14.01,2013-05-23 10:16:00,
2013-05-23 03:21:00,37.6,34.9,30.03,South,180,0.0,0.0,90,0.00,,---,0.00,VWS V14.01,2013-05-23 10:21:00,
2013-05-23 03:26:00,37.6,34.9,30.03,South,180,0.0,0.0,90,0.00,,---,0.00,VWS V14.01,2013-05-23 10:26:00,
2013-05-23 03:32:00,37.6,34.6,30.03,South,180,0.0,0.0,89,0.00,,---,0.00,VWS V14.01,2013-05-23 10:32:00,
2013-05-23 03:37:00,37.4,34.5,30.03,South,180,0.0,0.0,89,0.00,,---,0.00,VWS V14.01,2013-05-23 10:37:00,
2013-05-23 03:42:00,37.4,34.5,30.03,SSW,202,0.0,0.0,89,0.00,,---,0.00,VWS V14.01,2013-05-23 10:42:00,
2013-05-23 03:47:00,37.2,34.3,30.03,SSW,202,0.0,0.0,89,0.00,,---,0.00,VWS V14.01,2013-05-23 10:47:00,
2013-05-23 03:52:00,37.2,34.3,30.03,SSW,202,0.0,0.0,89,0.00,,---,0.00,VWS V14.01,2013-05-23 10:52:00,
2013-05-23 03:57:00,37.0,34.1,30.03,SSW,202,0.0,0.0,89,0.00,,---,0.00,VWS V14.01,2013-05-23 10:57:00,
2013-05-23 04:02:00,36.9,33.9,30.00,SSW,202,0.0,0.0,89,0.05,,---,0.05,VWS V14.01,2013-05-23 11:02:00,
2013-05-23 04:07:00,36.9,33.9,30.00,SW,225,0.0,0.0,89,0.05,,---,0.05,VWS V14.01,2013-05-23 11:07:00,
2013-05-23 04:12:00,36.9,33.9,30.00,SW,225,0.0,0.0,89,0.05,,---,0.05,VWS V14.01,2013-05-23 11:12:00,
2013-05-23 04:17:00,36.7,33.8,29.97,SW,225,0.0,0.0,89,0.05,,---,0.05,VWS V14.01,2013-05-23 11:17:00,
2013-05-23 04:22:00,36.5,33.6,29.97,SW,225,0.0,0.0,89,0.05,,---,0.05,VWS V14.01,2013-05-23 11:22:00,
2013-05-23 04:27:00,36.3,33.4,29.97,SW,225,0.0,0.0,89,0.05,,---,0.05,VWS V14.01,2013-05-23 11:27:00,
2013-05-23 04:32:00,36.1,33.2,30.03,SW,225,0.0,0.0,89,0.05,,---,0.05,VWS V14.01,2013-05-23 11:32:00,
2013-05-23 04:37:00,36.0,33.0,30.03,SW,225,0.0,0.0,89,0.05,,---,0.05,VWS V14.01,2013-05-23 11:37:00,
2013-05-23 04:42:00,35.8,32.9,30.03,SW,225,0.0,0.0,89,0.05,,---,0.05,VWS V14.01,2013-05-23 11:42:00,
2013-05-23 04:48:00,36.1,33.5,30.00,SW,225,0.0,0.0,90,0.05,,---,0.05,VWS V14.01,2013-05-23 11:48:00,
2013-05-23 04:53:00,36.3,33.7,30.00,SW,225,0.0,0.0,90,0.05,,---,0.05,VWS V14.01,2013-05-23 11:53:00,
2013-05-23 04:58:00,36.3,33.7,30.00,SW,225,0.0,0.0,90,0.05,,---,0.05,VWS V14.01,2013-05-23 11:58:00,
2013-05-23 05:03:00,36.5,34.1,30.00,SW,225,0.0,0.0,91,0.00,,---,0.05,VWS V14.01,2013-05-23 12:03:00,
2013-05-23 05:08:00,36.7,34.3,30.00,SW,225,0.0,0.0,91,0.00,,---,0.05,VWS V14.01,2013-05-23 12:08:00,
2013-05-23 05:13:00,37.0,34.7,30.00,SW,225,0.0,0.0,91,0.00,,---,0.05,VWS V14.01,2013-05-23 12:13:00,
2013-05-23 05:18:00,37.4,35.0,30.00,SW,225,0.0,0.0,91,0.00,,---,0.05,VWS V14.01,2013-05-23 12:18:00,
2013-05-23 05:23:00,37.6,35.2,30.00,SW,225,0.0,0.0,91,0.00,,---,0.05,VWS V14.01,2013-05-23 12:23:00,
2013-05-23 05:28:00,37.8,35.4,30.00,SW,225,0.0,0.0,91,0.00,,---,0.05,VWS V14.01,2013-05-23 12:28:00,
2013-05-23 05:33:00,37.8,35.4,30.00,SW,225,0.0,0.0,91,0.00,,---,0.05,VWS V14.01,2013-05-23 12:33:00,
2013-05-23 05:38:00,37.9,35.5,30.00,SW,225,0.0,0.0,91,0.00,,---,0.05,VWS V14.01,2013-05-23 12:38:00,
2013-05-23 05:43:00,37.9,35.5,30.00,WSW,248,0.0,0.0,91,0.00,,---,0.05,VWS V14.01,2013-05-23 12:43:00,
2013-05-23 05:48:00,37.9,35.3,30.00,West,270,0.0,0.0,90,0.00,,---,0.05,VWS V14.01,2013-05-23 12:48:00,
2013-05-23 05:53:00,37.9,35.3,30.00,SSW,202,0.0,0.0,90,0.00,,---,0.05,VWS V14.01,2013-05-23 12:53:00,
2013-05-23 05:59:00,37.9,35.3,30.00,NNW,338,0.0,0.0,90,0.00,,---,0.05,VWS V14.01,2013-05-23 12:59:00,
2013-05-23 06:04:00,38.1,35.5,30.00,NW,315,0.0,0.0,90,0.00,,---,0.05,VWS V14.01,2013-05-23 13:04:00,
2013-05-23 06:09:00,38.3,35.9,30.00,West,270,0.0,0.0,91,0.00,,---,0.05,VWS V14.01,2013-05-23 13:09:00,
2013-05-23 06:14:00,38.5,36.1,30.00,West,270,0.0,0.0,91,0.00,,---,0.05,VWS V14.01,2013-05-23 13:14:00,
2013-05-23 06:19:00,38.7,36.3,30.00,West,270,0.0,0.0,91,0.00,,---,0.05,VWS V14.01,2013-05-23 13:19:00,
2013-05-23 06:24:00,38.8,36.4,30.00,West,270,0.0,0.0,91,0.00,,---,0.05,VWS V14.01,2013-05-23 13:24:00,
2013-05-23 06:29:00,39.4,37.0,30.00,West,270,0.0,0.0,91,0.00,,---,0.05,VWS V14.01,2013-05-23 13:29:00,
2013-05-23 06:34:00,39.7,37.3,30.00,West,270,0.0,0.0,91,0.00,,---,0.05,VWS V14.01,2013-05-23 13:34:00,
2013-05-23 06:39:00,40.3,37.9,30.00,West,270,0.0,0.0,91,0.00,,---,0.05,VWS V14.01,2013-05-23 13:39:00,
2013-05-23 06:44:00,40.8,38.4,30.00,West,270,0.0,0.0,91,0.00,,---,0.05,VWS V14.01,2013-05-23 13:44:00,
2013-05-23 06:49:00,41.2,38.5,30.00,WSW,248,0.0,0.0,90,0.00,,---,0.05,VWS V14.01,2013-05-23 13:49:00,
2013-05-23 06:54:00,41.5,38.5,30.00,WNW,292,0.0,0.0,89,0.00,,---,0.05,VWS V14.01,2013-05-23 13:54:00,
2013-05-23 06:59:00,41.9,38.9,30.00,WNW,292,0.0,0.0,89,0.00,,---,0.05,VWS V14.01,2013-05-23 13:59:00,
2013-05-23 07:05:00,42.3,39.0,30.00,WNW,292,0.0,0.0,88,0.00,,---,0.05,VWS V14.01,2013-05-23 14:05:00,
2013-05-23 07:10:00,42.8,39.2,30.00,WNW,292,0.0,0.0,87,0.00,,---,0.05,VWS V14.01,2013-05-23 14:10:00,
2013-05-23 07:15:00,43.0,39.4,30.00,NNW,338,0.0,0.0,87,0.00,,---,0.05,VWS V14.01,2013-05-23 14:15:00,
2013-05-23 07:20:00,43.3,39.4,29.97,SE,135,2.0,2.0,86,0.00,,---,0.05,VWS V14.01,2013-05-23 14:20:00,
2013-05-23 07:25:00,43.5,39.6,29.97,SSE,158,1.6,1.6,86,0.00,,---,0.05,VWS V14.01,2013-05-23 14:25:00,
2013-05-23 07:30:00,43.7,38.9,29.97,SE,135,3.1,3.1,83,0.00,,---,0.05,VWS V14.01,2013-05-23 14:30:00,
2013-05-23 07:35:00,44.2,39.1,29.97,South,180,0.0,0.0,82,0.00,,---,0.05,VWS V14.01,2013-05-23 14:35:00,
2013-05-23 07:40:00,44.4,39.0,29.97,East,90,1.3,1.3,81,0.00,,---,0.05,VWS V14.01,2013-05-23 14:40:00,
2013-05-23 07:45:00,44.4,37.7,29.97,SE,135,2.9,2.9,77,0.00,,---,0.05,VWS V14.01,2013-05-23 14:45:00,
2013-05-23 07:50:00,45.0,38.2,29.97,ENE,68,4.0,4.0,77,0.00,,---,0.05,VWS V14.01,2013-05-23 14:50:00,
2013-05-23 07:55:00,44.8,37.3,29.97,SE,135,5.4,5.4,75,0.00,,---,0.05,VWS V14.01,2013-05-23 14:55:00,
2013-05-23 08:00:00,46.8,37.9,29.97,South,180,4.3,4.3,71,0.00,,---,4.46,VWS V14.01,2013-05-23 15:00:00,
2013-05-23 08:05:00,49.1,40.1,29.97,East,90,2.5,2.5,71,0.00,,---,4.46,VWS V14.01,2013-05-23 15:05:00,
2013-05-23 08:11:00,48.2,37.4,29.97,SE,135,2.9,2.9,66,0.00,,---,4.46,VWS V14.01,2013-05-23 15:11:00,
2013-05-23 08:16:00,48.2,37.8,30.00,NNE,22,3.4,3.4,67,0.00,,---,4.46,VWS V14.01,2013-05-23 15:16:00,
2013-05-23 08:21:00,48.4,37.6,30.00,NNE,22,1.6,1.6,66,0.00,,---,4.46,VWS V14.01,2013-05-23 15:21:00,
2013-05-23 08:26:00,48.6,37.0,30.00,South,180,0.0,0.0,64,0.00,,---,4.46,VWS V14.01,2013-05-23 15:26:00,
2013-05-23 08:31:00,49.8,36.9,29.97,ESE,112,5.6,5.6,61,0.00,,---,4.46,VWS V14.01,2013-05-23 15:31:00,
2013-05-23 08:36:00,50.0,37.5,29.97,SE,135,2.2,2.2,62,0.00,,---,4.46,VWS V14.01,2013-05-23 15:36:00,
2013-05-23 08:41:00,52.5,38.2,29.97,NNE,22,2.0,2.0,58,0.00,,---,4.46,VWS V14.01,2013-05-23 15:41:00,
2013-05-23 08:46:00,55.6,40.2,30.00,East,90,1.1,1.1,56,0.00,,---,4.46,VWS V14.01,2013-05-23 15:46:00,
2013-05-23 08:51:00,52.9,35.8,30.00,SSW,202,0.0,0.0,52,0.00,,---,4.46,VWS V14.01,2013-05-23 15:51:00,
2013-05-23 08:56:00,54.9,37.6,30.00,North,0,3.1,3.1,52,0.00,,---,4.46,VWS V14.01,2013-05-23 15:56:00,
2013-05-23 09:01:00,55.4,36.6,29.97,SW,225,2.5,2.5,49,0.00,,---,4.46,VWS V14.01,2013-05-23 16:01:00,
2013-05-23 09:12:00,55.8,35.8,29.97,East,90,2.5,2.5,47,0.00,,---,4.46,VWS V14.01,2013-05-23 16:12:00,
2013-05-23 09:17:00,54.5,35.2,29.97,East,90,2.5,2.5,48,0.00,,---,4.46,VWS V14.01,2013-05-23 16:17:00,
2013-05-23 09:22:00,55.9,36.5,29.97,East,90,2.9,2.9,48,0.00,,---,4.46,VWS V14.01,2013-05-23 16:22:00,
2013-05-23 09:27:00,55.4,36.1,29.97,SW,225,0.0,0.0,48,0.00,,---,4.46,VWS V14.01,2013-05-23 16:27:00,
2013-05-23 09:32:00,56.8,37.4,29.97,NNW,338,0.0,0.0,48,0.00,,---,4.46,VWS V14.01,2013-05-23 16:32:00,
2013-05-23 09:38:00,57.6,37.5,29.97,North,0,2.5,2.5,47,0.00,,---,4.46,VWS V14.01,2013-05-23 16:38:00,
2013-05-23 09:43:00,57.0,37.0,29.97,NNE,22,4.0,4.0,47,0.00,,---,4.46,VWS V14.01,2013-05-23 16:43:00,
2013-05-23 09:48:00,57.9,36.7,29.97,NNE,22,0.0,0.0,45,0.00,,---,4.46,VWS V14.01,2013-05-23 16:48:00,
2013-05-23 09:53:00,58.5,37.2,29.97,SSW,202,2.5,2.5,45,0.00,,---,4.46,VWS V14.01,2013-05-23 16:53:00,
2013-05-23 09:58:00,59.2,37.3,29.97,NE,45,4.3,4.3,44,0.00,,---,4.46,VWS V14.01,2013-05-23 16:58:00,
2013-05-23 10:03:00,60.4,38.4,29.97,SSW,202,0.0,0.0,44,0.00,,---,4.46,VWS V14.01,2013-05-23 17:03:00,
2013-05-23 10:08:00,60.6,36.8,29.97,ENE,68,2.9,2.9,41,0.00,,---,4.46,VWS V14.01,2013-05-23 17:08:00,
2013-05-23 10:13:00,61.3,36.2,29.97,North,0,4.0,4.0,39,0.00,,---,4.46,VWS V14.01,2013-05-23 17:13:00,
2013-05-23 10:18:00,61.3,36.2,29.94,NNE,22,1.6,1.6,39,0.00,,---,4.46,VWS V14.01,2013-05-23 17:18:00,
2013-05-23 10:23:00,59.4,34.4,29.94,NNW,338,0.0,0.0,39,0.00,,---,4.46,VWS V14.01,2013-05-23 17:23:00,
2013-05-23 10:28:00,59.7,35.4,29.94,NE,45,2.5,2.5,40,0.00,,---,4.46,VWS V14.01,2013-05-23 17:28:00,
2013-05-23 10:33:00,61.0,36.5,29.97,North,0,3.1,3.1,40,0.00,,---,4.46,VWS V14.01,2013-05-23 17:33:00,
2013-05-23 10:38:00,61.2,36.0,29.97,NNW,338,1.3,1.3,39,0.00,,---,4.46,VWS V14.01,2013-05-23 17:38:00,
2013-05-23 10:43:00,61.2,35.4,29.97,ENE,68,1.3,1.3,38,0.00,,---,4.46,VWS V14.01,2013-05-23 17:43:00,
2013-05-23 10:48:00,62.4,35.8,29.94,NW,315,3.6,3.6,37,0.00,,---,4.46,VWS V14.01,2013-05-23 17:48:00,
2013-05-23 10:53:00,64.8,37.2,29.94,North,0,3.4,3.4,36,0.00,,---,4.46,VWS V14.01,2013-05-23 17:53:00,
2013-05-23 10:59:00,64.4,36.2,29.94,NNW,338,5.6,5.6,35,0.00,,---,4.46,VWS V14.01,2013-05-23 17:59:00,
2013-05-23 11:04:00,60.8,33.7,29.94,NNW,338,0.0,0.0,36,0.00,,---,4.46,VWS V14.01,2013-05-23 18:04:00,
2013-05-23 11:09:00,59.4,33.1,29.94,SE,135,0.0,0.0,37,0.00,,---,4.46,VWS V14.01,2013-05-23 18:09:00,
2013-05-23 11:14:00,57.7,31.7,29.94,North,0,0.0,0.0,37,0.00,,---,4.46,VWS V14.01,2013-05-23 18:14:00,
2013-05-23 11:19:00,57.2,31.8,29.97,North,0,0.0,0.0,38,0.00,,---,4.46,VWS V14.01,2013-05-23 18:19:00,
2013-05-23 11:24:00,56.7,31.4,29.97,North,0,1.6,1.6,38,0.00,,---,4.46,VWS V14.01,2013-05-23 18:24:00,
2013-05-23 11:29:00,57.4,32.7,29.97,NNW,338,0.0,0.0,39,0.00,,---,4.46,VWS V14.01,2013-05-23 18:29:00,
2013-05-23 11:34:00,59.4,34.4,29.97,North,0,4.5,4.5,39,0.00,,---,4.46,VWS V14.01,2013-05-23 18:34:00,
2013-05-23 11:39:00,62.4,34.4,29.97,North,0,5.6,5.6,35,0.00,,---,4.46,VWS V14.01,2013-05-23 18:39:00,
2013-05-23 11:44:00,63.9,35.7,29.97,North,0,4.0,4.0,35,0.00,,---,4.46,VWS V14.01,2013-05-23 18:44:00,
2013-05-23 11:49:00,60.4,33.4,29.94,North,0,4.7,4.7,36,0.00,,---,4.46,VWS V14.01,2013-05-23 18:49:00,
2013-05-23 11:54:00,59.2,31.6,29.94,NNE,22,3.8,3.8,35,0.00,,---,4.46,VWS V14.01,2013-05-23 18:54:00,
2013-05-23 11:59:00,58.5,31.6,29.94,NNE,22,3.1,3.1,36,0.00,,---,4.46,VWS V14.01,2013-05-23 18:59:00,
2013-05-23 12:04:00,61.0,33.9,29.94,NW,315,0.0,0.0,36,0.00,,---,4.46,VWS V14.01,2013-05-23 19:04:00,
2013-05-23 12:09:00,61.7,33.8,29.94,NW,315,1.3,1.3,35,0.00,,---,4.46,VWS V14.01,2013-05-23 19:09:00,
2013-05-23 12:15:00,61.3,33.5,29.94,North,0,4.0,4.0,35,0.00,,---,4.46,VWS V14.01,2013-05-23 19:15:00,
2013-05-23 12:20:00,61.5,32.9,29.94,North,0,3.6,3.6,34,0.00,,---,4.46,VWS V14.01,2013-05-23 19:20:00,
2013-05-23 12:25:00,62.1,33.4,29.94,WNW,292,0.0,0.0,34,0.00,,---,4.46,VWS V14.01,2013-05-23 19:25:00,
2013-05-23 12:30:00,65.7,35.8,29.94,South,180,1.1,1.1,33,0.00,,---,4.46,VWS V14.01,2013-05-23 19:30:00,
2013-05-23 12:35:00,65.1,35.3,29.94,East,90,5.8,5.8,33,0.00,,---,4.46,VWS V14.01,2013-05-23 19:35:00,
2013-05-23 12:40:00,61.9,33.2,29.94,WSW,248,0.0,0.0,34,0.00,,---,4.46,VWS V14.01,2013-05-23 19:40:00,
2013-05-23 12:45:00,61.0,32.4,29.94,SSW,202,0.0,0.0,34,0.00,,---,4.46,VWS V14.01,2013-05-23 19:45:00,
2013-05-23 12:50:00,60.4,32.0,29.94,West,270,0.0,0.0,34,0.00,,---,4.46,VWS V14.01,2013-05-23 19:50:00,
2013-05-23 12:55:00,59.9,32.2,29.94,West,270,0.0,0.0,35,0.00,,---,4.46,VWS V14.01,2013-05-23 19:55:00,
2013-05-23 13:00:00,59.2,31.6,29.94,ESE,112,1.6,1.6,35,0.00,,---,4.46,VWS V14.01,2013-05-23 20:00:00,
2013-05-23 13:05:00,59.4,31.7,29.97,West,270,0.0,0.0,35,0.00,,---,4.46,VWS V14.01,2013-05-23 20:05:00,
2013-05-23 13:10:00,61.3,33.5,29.97,East,90,1.3,1.3,35,0.00,,---,4.46,VWS V14.01,2013-05-23 20:10:00,
2013-05-23 13:15:00,61.5,32.9,29.94,ENE,68,2.9,2.9,34,0.00,,---,4.46,VWS V14.01,2013-05-23 20:15:00,
2013-05-23 13:21:00,61.7,33.1,29.94,NE,45,4.3,4.3,34,0.00,,---,4.46,VWS V14.01,2013-05-23 20:21:00,
2013-05-23 13:26:00,61.9,33.2,29.94,East,90,0.9,0.9,34,0.00,,---,4.46,VWS V14.01,2013-05-23 20:26:00,
2013-05-23 13:31:00,64.4,34.7,29.94,SW,225,2.7,2.7,33,0.00,,---,4.46,VWS V14.01,2013-05-23 20:31:00,
2013-05-23 13:36:00,63.9,34.2,29.94,North,0,3.4,3.4,33,0.00,,---,4.46,VWS V14.01,2013-05-23 20:36:00,
2013-05-23 13:41:00,63.0,31.9,29.94,North,0,2.5,2.5,31,0.00,,---,4.46,VWS V14.01,2013-05-23 20:41:00,
2013-05-23 13:46:00,62.2,32.8,29.91,NNE,22,3.1,3.1,33,0.00,,---,4.46,VWS V14.01,2013-05-23 20:46:00,
2013-05-23 13:51:00,61.5,32.2,29.91,East,90,1.6,1.6,33,0.00,,---,4.46,VWS V14.01,2013-05-23 20:51:00,
2013-05-23 13:56:00,61.2,32.6,29.91,NNE,22,2.7,2.7,34,0.00,,---,4.46,VWS V14.01,2013-05-23 20:56:00,
2013-05-23 14:01:00,61.0,32.4,29.97,North,0,0.0,0.0,34,0.00,,---,4.46,VWS V14.01,2013-05-23 21:01:00,
2013-05-23 14:06:00,61.7,33.1,29.97,NW,315,2.0,2.0,34,0.00,,---,4.46,VWS V14.01,2013-05-23 21:06:00,
2013-05-23 14:11:00,63.1,33.6,29.97,SW,225,2.5,2.5,33,0.00,,---,4.46,VWS V14.01,2013-05-23 21:11:00,
2013-05-23 14:16:00,63.3,33.8,29.97,WNW,292,0.0,0.0,33,0.00,,---,4.46,VWS V14.01,2013-05-23 21:16:00,
2013-05-23 14:21:00,64.2,34.5,29.94,NNW,338,0.0,0.0,33,0.00,,---,4.46,VWS V14.01,2013-05-23 21:21:00,
2013-05-23 14:27:00,63.3,32.2,29.94,SE,135,2.5,2.5,31,0.00,,---,4.46,VWS V14.01,2013-05-23 21:27:00,
2013-05-23 14:32:00,62.8,31.7,29.94,NNW,338,1.6,1.6,31,0.00,,---,4.46,VWS V14.01,2013-05-23 21:32:00,
2013-05-23 14:37:00,63.1,30.4,29.94,North,0,2.9,2.9,29,0.00,,---,4.46,VWS V14.01,2013-05-23 21:37:00,
2013-05-23 14:42:00,65.1,33.8,29.94,NW,315,0.0,0.0,31,0.00,,---,4.46,VWS V14.01,2013-05-23 21:42:00,
2013-05-23 14:47:00,64.2,32.2,29.94,SW,225,0.0,0.0,30,0.00,,---,4.46,VWS V14.01,2013-05-23 21:47:00,
2013-05-23 14:52:00,63.7,32.5,29.94,WSW,248,0.0,0.0,31,0.00,,---,4.46,VWS V14.01,2013-05-23 21:52:00,
2013-05-23 14:57:00,63.0,31.1,29.94,WNW,292,0.0,0.0,30,0.00,,---,4.46,VWS V14.01,2013-05-23 21:57:00,
2013-05-23 15:02:00,61.7,30.0,29.94,North,0,0.9,0.9,30,0.00,,---,4.46,VWS V14.01,2013-05-23 22:02:00,
2013-05-23 15:07:00,61.7,30.8,29.94,NNW,338,2.9,2.9,31,0.00,,---,4.46,VWS V14.01,2013-05-23 22:07:00,
2013-05-23 15:12:00,62.1,31.1,29.94,South,180,2.0,2.0,31,0.00,,---,4.46,VWS V14.01,2013-05-23 22:12:00,
2013-05-23 15:17:00,61.9,30.1,29.94,South,180,4.0,4.0,30,0.00,,---,4.46,VWS V14.01,2013-05-23 22:17:00,
2013-05-23 15:22:00,63.3,32.2,29.94,WNW,292,1.3,1.3,31,0.00,,---,4.46,VWS V14.01,2013-05-23 22:22:00,
2013-05-23 15:27:00,64.8,32.6,29.94,South,180,0.0,0.0,30,0.00,,---,4.46,VWS V14.01,2013-05-23 22:27:00,
2013-05-23 15:33:00,65.7,33.4,29.94,WSW,248,0.9,0.9,30,0.00,,---,4.46,VWS V14.01,2013-05-23 22:33:00,
2013-05-23 15:38:00,66.7,33.5,29.94,North,0,2.0,2.0,29,0.00,,---,4.46,VWS V14.01,2013-05-23 22:38:00,
2013-05-23 15:43:00,64.4,31.5,29.94,NNW,338,2.2,2.2,29,0.00,,---,4.46,VWS V14.01,2013-05-23 22:43:00,
2013-05-23 15:48:00,65.5,32.4,29.91,NE,45,3.1,3.1,29,0.00,,---,4.46,VWS V14.01,2013-05-23 22:48:00,
2013-05-23 15:53:00,66.4,31.4,29.91,North,0,2.0,2.0,27,0.00,,---,4.46,VWS V14.01,2013-05-23 22:53:00,
2013-05-23 15:58:00,66.9,32.8,29.91,North,0,2.2,2.2,28,0.00,,---,4.46,VWS V14.01,2013-05-23 22:58:00,
2013-05-23 16:03:00,67.5,32.3,29.94,WSW,248,0.9,0.9,27,0.00,,---,4.46,VWS V14.01,2013-05-23 23:03:00,
2013-05-23 16:08:00,67.3,32.2,29.94,SW,225,0.0,0.0,27,0.00,,---,4.46,VWS V14.01,2013-05-23 23:08:00,
2013-05-23 16:13:00,69.1,33.7,29.94,WNW,292,0.0,0.0,27,0.00,,---,4.46,VWS V14.01,2013-05-23 23:13:00,
2013-05-23 16:18:00,68.4,32.2,29.94,NNW,338,4.0,4.0,26,0.00,,---,4.46,VWS V14.01,2013-05-23 23:18:00,
2013-05-23 16:23:00,68.4,32.2,29.94,NW,315,0.0,0.0,26,0.00,,---,4.46,VWS V14.01,2013-05-23 23:23:00,
2013-05-23 16:28:00,64.2,29.6,29.94,NNW,338,2.7,2.7,27,0.00,,---,4.46,VWS V14.01,2013-05-23 23:28:00,
2013-05-23 16:33:00,63.5,29.0,29.94,NNW,338,2.5,2.5,27,0.00,,---,4.46,VWS V14.01,2013-05-23 23:33:00,
2013-05-23 16:38:00,63.1,29.5,29.94,NW,315,0.0,0.0,28,0.00,,---,4.46,VWS V14.01,2013-05-23 23:38:00,
2013-05-23 16:43:00,63.0,29.4,29.94,NNW,338,2.0,2.0,28,0.00,,---,4.46,VWS V14.01,2013-05-23 23:43:00,
2013-05-23 16:49:00,62.1,28.6,29.94,North,0,2.5,2.5,28,0.00,,---,4.46,VWS V14.01,2013-05-23 23:49:00,
2013-05-23 16:54:00,63.3,29.7,29.94,East,90,2.7,2.7,28,0.00,,---,4.46,VWS V14.01,2013-05-23 23:54:00,
2013-05-23 16:59:00,61.9,28.4,29.94,North,0,2.7,2.7,28,0.00,,---,4.46,VWS V14.01,2013-05-23 23:59:00,
2013-05-23 17:04:00,60.8,27.5,29.94,NW,315,2.2,2.2,28,0.00,,---,4.46,VWS V14.01,2013-05-24 00:04:00,
2013-05-23 17:09:00,61.5,28.1,29.94,NW,315,0.0,0.0,28,0.00,,---,4.46,VWS V14.01,2013-05-24 00:09:00,
2013-05-23 17:14:00,61.0,27.7,29.94,NNW,338,2.2,2.2,28,0.00,,---,4.46,VWS V14.01,2013-05-24 00:14:00,
2013-05-23 17:19:00,62.4,29.8,29.94,North,0,2.9,2.9,29,0.00,,---,4.46,VWS V14.01,2013-05-24 00:19:00,
2013-05-23 17:24:00,62.6,29.1,29.94,NNW,338,2.5,2.5,28,0.00,,---,4.46,VWS V14.01,2013-05-24 00:24:00,
2013-05-23 17:29:00,62.6,29.1,29.94,NW,315,0.0,0.0,28,0.00,,---,4.46,VWS V14.01,2013-05-24 00:29:00,
2013-05-23 17:34:00,62.8,29.2,29.94,NNW,338,0.0,0.0,28,0.00,,---,4.46,VWS V14.01,2013-05-24 00:34:00,
2013-05-23 17:39:00,63.1,29.5,29.94,North,0,2.0,2.0,28,0.00,,---,4.46,VWS V14.01,2013-05-24 00:39:00,
2013-05-23 17:44:00,62.4,28.9,29.94,North,0,2.2,2.2,28,0.00,,---,4.46,VWS V14.01,2013-05-24 00:44:00,
2013-05-23 17:49:00,61.3,28.0,29.94,WNW,292,0.0,0.0,28,0.00,,---,4.46,VWS V14.01,2013-05-24 00:49:00,
2013-05-23 17:54:00,60.1,27.7,29.94,NW,315,0.0,0.0,29,0.00,,---,4.46,VWS V14.01,2013-05-24 00:54:00,
2013-05-23 18:00:00,59.2,27.0,29.94,NW,315,0.0,0.0,29,0.00,,---,4.46,VWS V14.01,2013-05-24 01:00:00,
2013-05-23 18:05:00,59.0,26.8,29.94,West,270,0.0,0.0,29,0.00,,---,4.46,VWS V14.01,2013-05-24 01:05:00,
2013-05-23 18:10:00,59.5,28.1,29.94,WNW,292,0.0,0.0,30,0.00,,---,4.46,VWS V14.01,2013-05-24 01:10:00,
2013-05-23 18:15:00,59.9,27.6,29.94,NNW,338,0.0,0.0,29,0.00,,---,4.46,VWS V14.01,2013-05-24 01:15:00,
2013-05-23 18:20:00,59.5,27.3,29.94,WNW,292,0.0,0.0,29,0.00,,---,4.46,VWS V14.01,2013-05-24 01:20:00,
2013-05-23 18:25:00,58.6,26.5,29.94,WNW,292,0.0,0.0,29,0.00,,---,4.46,VWS V14.01,2013-05-24 01:25:00,
2013-05-23 18:30:00,57.9,25.9,29.94,NW,315,0.0,0.0,29,0.00,,---,4.46,VWS V14.01,2013-05-24 01:30:00,
2013-05-23 18:35:00,57.9,26.7,29.94,WNW,292,0.0,0.0,30,0.00,,---,4.46,VWS V14.01,2013-05-24 01:35:00,
2013-05-23 18:40:00,58.1,26.9,29.94,WNW,292,0.0,0.0,30,0.00,,---,4.46,VWS V14.01,2013-05-24 01:40:00,
2013-05-23 18:45:00,59.2,27.8,29.94,WNW,292,0.0,0.0,30,0.00,,---,4.46,VWS V14.01,2013-05-24 01:45:00,
2013-05-23 18:50:00,59.7,28.3,29.94,NNW,338,0.0,0.0,30,0.00,,---,4.46,VWS V14.01,2013-05-24 01:50:00,
2013-05-23 18:55:00,60.1,28.6,29.94,WNW,292,0.0,0.0,30,0.00,,---,4.46,VWS V14.01,2013-05-24 01:55:00,
2013-05-23 19:00:00,60.1,28.6,29.91,WNW,292,0.0,0.0,30,0.00,,---,4.46,VWS V14.01,2013-05-24 02:00:00,
2013-05-23 19:05:00,60.1,27.7,29.91,WNW,292,0.0,0.0,29,0.00,,---,4.46,VWS V14.01,2013-05-24 02:05:00,
2013-05-23 19:10:00,59.9,27.6,29.91,WNW,292,0.0,0.0,29,0.00,,---,4.46,VWS V14.01,2013-05-24 02:10:00,
2013-05-23 19:16:00,59.7,27.4,29.91,NNW,338,0.0,0.0,29,0.00,,---,4.46,VWS V14.01,2013-05-24 02:16:00,
2013-05-23 19:21:00,59.5,27.3,29.91,WNW,292,0.0,0.0,29,0.00,,---,4.46,VWS V14.01,2013-05-24 02:21:00,
2013-05-23 19:26:00,59.4,27.1,29.91,WNW,292,0.0,0.0,29,0.00,,---,4.46,VWS V14.01,2013-05-24 02:26:00,
2013-05-23 19:31:00,59.0,26.8,29.91,NW,315,0.0,0.0,29,0.00,,---,4.46,VWS V14.01,2013-05-24 02:31:00,
2013-05-23 19:36:00,58.6,27.3,29.91,WNW,292,0.0,0.0,30,0.00,,---,4.46,VWS V14.01,2013-05-24 02:36:00,
2013-05-23 19:41:00,57.9,26.7,29.91,WNW,292,0.0,0.0,30,0.00,,---,4.46,VWS V14.01,2013-05-24 02:41:00,
2013-05-23 19:46:00,57.4,26.2,29.91,NNW,338,0.0,0.0,30,0.00,,---,4.46,VWS V14.01,2013-05-24 02:46:00,
2013-05-23 19:51:00,56.8,25.8,29.91,NW,315,0.0,0.0,30,0.00,,---,4.46,VWS V14.01,2013-05-24 02:51:00,
2013-05-23 19:56:00,56.7,25.6,29.91,NW,315,0.0,0.0,30,0.00,,---,4.46,VWS V14.01,2013-05-24 02:56:00,
2013-05-23 20:01:00,56.3,25.3,29.91,WNW,292,0.0,0.0,30,0.00,,---,4.46,VWS V14.01,2013-05-24 03:01:00,
2013-05-23 20:06:00,56.1,25.9,29.91,NW,315,0.0,0.0,31,0.00,,---,4.46,VWS V14.01,2013-05-24 03:06:00,
2013-05-23 20:11:00,55.8,25.6,29.91,West,270,0.0,0.0,31,0.00,,---,4.46,VWS V14.01,2013-05-24 03:11:00,
2013-05-23 20:16:00,55.4,25.3,29.91,NW,315,0.0,0.0,31,0.00,,---,4.46,VWS V14.01,2013-05-24 03:16:00,
2013-05-23 20:21:00,54.9,24.8,29.91,WNW,292,0.0,0.0,31,0.00,,---,4.46,VWS V14.01,2013-05-24 03:21:00,
2013-05-23 20:26:00,54.5,24.5,29.91,NW,315,0.0,0.0,31,0.00,,---,4.46,VWS V14.01,2013-05-24 03:26:00,
2013-05-23 20:32:00,53.8,24.6,29.91,SW,225,0.0,0.0,32,0.00,,---,4.46,VWS V14.01,2013-05-24 03:32:00,
2013-05-23 20:37:00,52.9,25.3,29.91,SW,225,0.0,0.0,34,0.00,,---,4.46,VWS V14.01,2013-05-24 03:37:00,
2013-05-23 20:42:00,52.0,25.9,29.91,SW,225,0.0,0.0,36,0.00,,---,4.46,VWS V14.01,2013-05-24 03:42:00,
2013-05-23 20:47:00,51.3,27.2,29.94,SW,225,0.0,0.0,39,0.00,,---,4.46,VWS V14.01,2013-05-24 03:47:00,
2013-05-23 20:52:00,50.5,27.7,29.94,SSW,202,0.0,0.0,41,0.00,,---,4.46,VWS V14.01,2013-05-24 03:52:00,
2013-05-23 20:57:00,50.2,30.2,29.94,SSW,202,3.1,3.1,46,0.00,,---,4.46,VWS V14.01,2013-05-24 03:57:00,
2013-05-23 21:01:00,49.8,29.9,29.94,South,180,2.7,2.7,46,0.00,,---,4.46,VWS V14.01,2013-05-24 04:01:00,
2013-05-23 21:02:00,49.6,29.7,29.94,South,180,2.7,2.7,46,0.00,,---,4.46,VWS V14.01,2013-05-24 04:02:00,
2013-05-23 21:03:00,49.5,30.1,29.94,South,180,3.1,3.1,47,0.00,,---,4.46,VWS V14.01,2013-05-24 04:03:00,
2013-05-23 21:09:00,49.3,29.9,29.94,South,180,2.5,2.5,47,0.00,,---,4.46,VWS V14.01,2013-05-24 04:09:00,
2013-05-23 21:14:00,48.4,29.1,29.94,SSW,202,0.0,0.0,47,0.00,,---,4.46,VWS V14.01,2013-05-24 04:14:00,
2013-05-23 21:19:00,48.0,29.3,29.91,SSW,202,0.0,0.0,48,0.00,,---,4.46,VWS V14.01,2013-05-24 04:19:00,
2013-05-23 21:24:00,47.5,28.8,29.91,SSW,202,0.0,0.0,48,0.00,,---,4.46,VWS V14.01,2013-05-24 04:24:00,
2013-05-23 21:29:00,47.1,29.0,29.91,SSW,202,0.0,0.0,49,0.00,,---,4.46,VWS V14.01,2013-05-24 04:29:00,
2013-05-23 21:34:00,46.8,28.6,29.94,SSW,202,2.2,2.2,49,0.00,,---,4.46,VWS V14.01,2013-05-24 04:34:00,
2013-05-23 21:39:00,46.4,28.8,29.94,SSW,202,0.0,0.0,50,0.00,,---,4.46,VWS V14.01,2013-05-24 04:39:00,
2013-05-23 21:44:00,46.0,28.9,29.94,SSW,202,0.0,0.0,51,0.00,,---,4.46,VWS V14.01,2013-05-24 04:44:00,
2013-05-23 21:49:00,45.9,28.3,29.94,SW,225,0.0,0.0,50,0.00,,---,4.46,VWS V14.01,2013-05-24 04:49:00,
2013-05-23 21:54:00,45.5,28.4,29.94,SW,225,0.0,0.0,51,0.00,,---,4.46,VWS V14.01,2013-05-24 04:54:00,
2013-05-23 21:59:00,45.0,27.9,29.94,South,180,0.0,0.0,51,0.00,,---,4.46,VWS V14.01,2013-05-24 04:59:00,
2013-05-23 22:04:00,44.8,28.7,29.94,South,180,0.0,0.0,53,0.00,,---,4.46,VWS V14.01,2013-05-24 05:04:00,
2013-05-23 22:09:00,44.6,29.0,29.94,South,180,0.0,0.0,54,0.00,,---,4.46,VWS V14.01,2013-05-24 05:09:00,
2013-05-23 22:14:00,44.4,29.7,29.94,South,180,0.0,0.0,56,0.00,,---,4.46,VWS V14.01,2013-05-24 05:14:00,
2013-05-23 22:19:00,44.2,29.5,29.94,SSW,202,0.0,0.0,56,0.00,,---,4.46,VWS V14.01,2013-05-24 05:19:00,
2013-05-23 22:25:00,44.1,29.8,29.94,SW,225,0.0,0.0,57,0.00,,---,4.46,VWS V14.01,2013-05-24 05:25:00,
2013-05-23 22:30:00,43.9,29.6,29.94,SSE,158,0.0,0.0,57,0.00,,---,4.46,VWS V14.01,2013-05-24 05:30:00,
2013-05-23 22:35:00,43.5,28.9,29.91,South,180,0.0,0.0,56,0.00,,---,4.46,VWS V14.01,2013-05-24 05:35:00,
2013-05-23 22:40:00,43.2,29.4,29.91,SSE,158,0.0,0.0,58,0.00,,---,4.46,VWS V14.01,2013-05-24 05:40:00,
2013-05-23 22:45:00,42.6,29.3,29.91,South,180,0.0,0.0,59,0.00,,---,4.46,VWS V14.01,2013-05-24 05:45:00,
2013-05-23 22:50:00,43.0,29.6,29.94,SSW,202,0.0,0.0,59,0.00,,---,4.46,VWS V14.01,2013-05-24 05:50:00,
2013-05-23 22:55:00,42.8,29.9,29.94,SSW,202,0.0,0.0,60,0.00,,---,4.46,VWS V14.01,2013-05-24 05:55:00,
2013-05-23 23:00:00,42.3,29.4,29.94,SSW,202,0.0,0.0,60,0.00,,---,4.46,VWS V14.01,2013-05-24 06:00:00,
2013-05-23 23:05:00,42.1,29.2,29.94,SSW,202,0.0,0.0,60,0.00,,---,4.46,VWS V14.01,2013-05-24 06:05:00,
2013-05-23 23:10:00,41.4,28.5,29.94,WSW,248,0.0,0.0,60,0.00,,---,4.46,VWS V14.01,2013-05-24 06:10:00,
2013-05-23 23:15:00,41.7,29.7,29.94,SW,225,0.0,0.0,62,0.00,,---,4.46,VWS V14.01,2013-05-24 06:15:00,
2013-05-23 23:20:00,41.5,29.5,29.94,SW,225,0.0,0.0,62,0.00,,---,4.46,VWS V14.01,2013-05-24 06:20:00,
2013-05-23 23:25:00,41.4,29.7,29.94,SW,225,0.0,0.0,63,0.00,,---,4.46,VWS V14.01,2013-05-24 06:25:00,
2013-05-23 23:30:00,41.4,30.1,29.94,SSW,202,0.0,0.0,64,0.00,,---,4.46,VWS V14.01,2013-05-24 06:30:00,
2013-05-23 23:35:00,41.0,29.4,29.94,SW,225,0.0,0.0,63,0.00,,---,4.46,VWS V14.01,2013-05-24 06:35:00,
2013-05-23 23:40:00,41.0,30.1,29.94,SW,225,0.0,0.0,65,0.00,,---,4.46,VWS V14.01,2013-05-24 06:40:00,
2013-05-23 23:46:00,40.8,30.4,29.94,SW,225,0.0,0.0,66,0.00,,---,4.46,VWS V14.01,2013-05-24 06:46:00,
2013-05-23 23:51:00,40.5,30.0,29.94,SW,225,0.0,0.0,66,0.00,,---,4.46,VWS V14.01,2013-05-24 06:51:00,
2013-05-23 23:56:00,40.3,29.8,29.94,SW,225,0.0,0.0,66,0.00,,---,4.46,VWS V14.01,2013-05-24 06:56:00,